Terminal Aerodrome Forecast
Issued by NWS Charleston, WV

Current Version | Previous Version | Text Only | Print | Product List | Glossary Off
Versions: 1 2 3 4 5 6 7 8 9 10 11 12 13 14 15 16 17 18 19 20 21 22 23 24 25 26 27

000
FTUS41 KRLX 130800 AAA
TAFEKN
TAF AMD
KEKN 130852Z 1309/1406 18005KT P6SM SCT250
     FM131400 22010KT P6SM SCT250
     FM131500 23013G22KT P6SM SCT250
     FM140000 21009G14KT P6SM SCT250=

USA.gov is the U.S. government's official web portal to all federal, state and local government web resources and services.